createdAt,value
2019-03-18T00:00:33.348Z,99141.72
2019-03-18T00:03:00.334Z,99145.16
2019-03-18T00:05:27.560Z,99144.86
2019-03-18T00:07:54.527Z,99147.49
2019-03-18T00:10:21.763Z,99148.34
2019-03-18T00:12:48.723Z,99152.16
2019-03-18T00:15:15.675Z,99146.22
2019-03-18T00:17:42.610Z,99139.86
2019-03-18T00:20:09.846Z,99142.78
2019-03-18T00:22:36.873Z,99128.41
2019-03-18T00:25:04.129Z,99135.24
2019-03-18T00:27:31.281Z,99143.26
2019-03-18T00:29:58.171Z,99162.37
2019-03-18T00:32:25.135Z,99162.41
2019-03-18T00:34:52.442Z,99175.09
2019-03-18T00:37:19.414Z,99172.59
2019-03-18T00:39:46.632Z,99180.64
2019-03-18T00:42:13.577Z,99187.81
2019-03-18T00:44:40.549Z,99186.19
2019-03-18T00:47:07.505Z,99176.02
2019-03-18T00:49:34.465Z,99179.45
2019-03-18T00:52:01.705Z,99189.12
2019-03-18T00:54:28.646Z,99195.48
2019-03-18T00:56:55.510Z,99191.75
2019-03-18T00:59:22.467Z,99188.86
2019-03-18T01:01:49.344Z,99180.08
2019-03-18T01:04:16.292Z,99179.31
2019-03-18T01:06:43.266Z,99184.83
2019-03-18T01:09:10.155Z,99184.83
2019-03-18T01:11:37.111Z,99172.16
2019-03-18T01:14:04.096Z,99176.56
2019-03-18T01:16:31.061Z,99172.31
2019-03-18T01:18:57.945Z,99168.97
2019-03-18T01:21:25.242Z,99166.55
2019-03-18T01:23:52.166Z,99159.88
2019-03-18T01:26:19.124Z,99171.83
2019-03-18T01:28:46.361Z,99178.14
2019-03-18T01:31:13.275Z,99180.23
2019-03-18T01:33:40.134Z,99175.60
2019-03-18T01:36:07.306Z,99175.14
2019-03-18T01:38:34.189Z,99174.25
2019-03-18T01:41:01.150Z,99170.06
2019-03-18T01:43:28.095Z,99170.64
2019-03-18T01:45:55.050Z,99168.13
2019-03-18T01:48:21.928Z,99168.13
2019-03-18T01:50:48.885Z,99162.70
2019-03-18T01:53:16.135Z,99164.44
2019-03-18T01:55:43.390Z,99168.75
2019-03-18T01:58:10.329Z,99183.20
2019-03-18T02:00:37.209Z,99182.31
2019-03-18T02:03:04.090Z,99180.19
2019-03-18T02:05:31.046Z,99185.73
2019-03-18T02:07:58.306Z,99185.81
2019-03-18T02:10:25.180Z,99179.50
2019-03-18T02:12:52.451Z,99172.69
2019-03-18T02:15:19.318Z,99189.66
2019-03-18T02:17:46.274Z,99206.61
2019-03-18T02:20:13.556Z,99201.98
2019-03-18T02:22:40.732Z,99205.45
2019-03-18T02:25:07.969Z,99202.94
2019-03-18T02:27:35.217Z,99204.14
2019-03-18T02:30:02.465Z,99210.88
2019-03-18T02:32:29.593Z,99211.80
2019-03-18T02:34:56.560Z,99208.41
2019-03-18T02:37:23.514Z,99214.77
2019-03-18T02:39:50.457Z,99212.26
2019-03-18T02:42:17.408Z,99213.10
2019-03-18T02:44:44.362Z,99217.80
2019-03-18T02:47:11.306Z,99229.34
2019-03-18T02:49:38.543Z,99236.16
2019-03-18T02:52:05.406Z,99241.77
2019-03-18T02:54:32.284Z,99239.69
2019-03-18T02:56:59.584Z,99249.03
2019-03-18T02:59:26.835Z,99250.80
2019-03-18T03:01:54.085Z,99266.00
2019-03-18T03:04:20.956Z,99269.42
2019-03-18T03:06:47.910Z,99256.33
2019-03-18T03:09:15.239Z,99249.56
2019-03-18T03:11:42.314Z,99255.03
2019-03-18T03:14:09.320Z,99260.50
2019-03-18T03:16:36.331Z,99259.69
2019-03-18T03:19:03.276Z,99259.27
2019-03-18T03:21:31.523Z,99272.84
2019-03-18T03:23:58.476Z,99270.34
2019-03-18T03:26:25.430Z,99286.78
2019-03-18T03:28:52.297Z,99298.57
2019-03-18T03:31:19.237Z,99295.25
2019-03-18T03:33:46.182Z,99302.91
2019-03-18T03:36:13.150Z,99300.04
2019-03-18T03:38:40.428Z,99308.61
2019-03-18T03:41:07.681Z,99309.06
2019-03-18T03:43:34.613Z,99306.09
2019-03-18T03:46:01.784Z,99301.90
2019-03-18T03:48:28.740Z,99304.05
2019-03-18T03:50:57.685Z,99303.62
2019-03-18T03:53:24.672Z,99310.81
2019-03-18T03:55:51.644Z,99312.51
2019-03-18T03:58:18.852Z,99317.59
2019-03-18T04:00:46.013Z,99320.61
2019-03-18T04:03:12.966Z,99326.09
2019-03-18T04:05:40.223Z,99329.92
2019-03-18T04:08:07.147Z,99312.18
2019-03-18T04:10:34.081Z,99323.25
2019-03-18T04:13:00.961Z,99328.00
2019-03-18T04:15:28.207Z,99320.50
2019-03-18T04:17:55.163Z,99333.71
2019-03-18T04:20:22.379Z,99342.59
2019-03-18T04:22:49.650Z,99343.86
2019-03-18T04:25:16.903Z,99340.51
2019-03-18T04:27:46.964Z,99337.13
2019-03-18T04:30:13.843Z,99353.26
2019-03-18T04:32:40.871Z,99358.39
2019-03-18T04:35:07.891Z,99350.84
2019-03-18T04:37:35.221Z,99354.27
2019-03-18T04:40:02.154Z,99369.11
2019-03-18T04:42:29.030Z,99371.28
2019-03-18T04:44:55.939Z,99375.95
2019-03-18T04:47:24.130Z,99375.65
2019-03-18T04:49:51.131Z,99368.52
2019-03-18T04:52:18.539Z,99369.37
2019-03-18T04:54:46.898Z,99364.79
2019-03-18T04:57:13.845Z,99379.19
2019-03-18T04:59:40.804Z,99391.51
2019-03-18T05:02:07.817Z,99390.66
2019-03-18T05:04:34.695Z,99396.20
2019-03-18T05:07:01.601Z,99394.55
2019-03-18T05:09:28.597Z,99392.06
2019-03-18T05:11:55.481Z,99398.42
2019-03-18T05:14:22.384Z,99397.97
2019-03-18T05:16:49.340Z,99402.67
2019-03-18T05:19:16.668Z,99402.66
2019-03-18T05:21:43.612Z,99399.30
2019-03-18T05:24:10.554Z,99409.86
2019-03-18T05:26:37.508Z,99409.81
2019-03-18T05:29:04.477Z,99409.39
2019-03-18T05:31:31.806Z,99409.86
2019-03-18T05:33:58.825Z,99403.52
2019-03-18T05:36:25.758Z,99408.61
2019-03-18T05:38:52.643Z,99402.27
2019-03-18T05:41:19.592Z,99398.96
2019-03-18T05:43:46.834Z,99405.32
2019-03-18T05:46:14.200Z,99394.76
2019-03-18T05:48:41.438Z,99395.19
2019-03-18T05:51:08.600Z,99392.63
2019-03-18T05:53:35.559Z,99393.02
2019-03-18T05:58:51.855Z,99401.95
2019-03-18T06:01:18.790Z,99406.36
2019-03-18T06:03:45.758Z,99406.34
2019-03-18T06:06:13.113Z,99395.67
2019-03-18T06:08:40.007Z,99404.03
2019-03-18T06:11:07.312Z,99400.56
2019-03-18T06:13:34.265Z,99399.67
2019-03-18T06:16:01.503Z,99405.53
2019-03-18T06:18:28.423Z,99409.27
2019-03-18T06:20:55.376Z,99421.91
2019-03-18T06:23:22.329Z,99404.09
2019-03-18T06:25:49.193Z,99412.14
2019-03-18T06:28:16.452Z,99417.17
2019-03-18T06:30:43.422Z,99415.85
2019-03-18T06:33:10.502Z,99420.84
2019-03-18T06:35:37.457Z,99409.40
2019-03-18T06:38:04.727Z,99411.91
2019-03-18T06:40:31.597Z,99421.59
2019-03-18T06:42:58.840Z,99425.34
2019-03-18T06:45:26.077Z,99418.95
2019-03-18T06:48:04.093Z,99412.52
2019-03-18T06:50:21.616Z,99425.05
2019-03-18T06:52:48.557Z,99422.30
2019-03-18T06:55:15.448Z,99436.33
2019-03-18T06:57:42.399Z,99428.41
2019-03-18T07:00:09.710Z,99425.09
2019-03-18T07:02:36.948Z,99419.17
2019-03-18T07:05:03.809Z,99425.86
2019-03-18T07:07:30.733Z,99420.16
2019-03-18T07:09:57.675Z,99425.02
2019-03-18T07:12:24.851Z,99426.86
2019-03-18T07:14:52.125Z,99428.52
2019-03-18T07:17:19.115Z,99438.84
2019-03-18T07:19:46.414Z,99434.84
2019-03-18T07:22:13.295Z,99444.28
2019-03-18T07:24:40.592Z,99442.94
2019-03-18T07:27:07.891Z,99433.62
2019-03-18T07:29:35.204Z,99436.73
2019-03-18T07:32:03.578Z,99439.94
2019-03-18T07:34:31.601Z,99437.70
2019-03-18T07:36:58.492Z,99432.88
2019-03-18T07:39:25.470Z,99428.68
2019-03-18T07:41:52.400Z,99429.98
2019-03-18T07:44:19.294Z,99443.48
2019-03-18T07:46:46.474Z,99446.42
2019-03-18T07:49:13.360Z,99450.44
2019-03-18T07:51:40.275Z,99446.92
2019-03-18T07:54:07.583Z,99443.48
2019-03-18T07:56:34.466Z,99457.59
2019-03-18T07:59:01.736Z,99465.27
2019-03-18T08:01:28.886Z,99459.00
2019-03-18T08:03:56.135Z,99465.44
2019-03-18T08:06:35.242Z,99466.60
2019-03-18T08:14:54.209Z,99475.50
2019-03-18T08:26:45.267Z,99462.61
2019-03-18T08:32:38.715Z,99467.51
2019-03-18T08:47:12.705Z,99490.77
2019-03-18T09:01:45.205Z,99500.31
2019-03-18T09:04:30.159Z,99504.45
2019-03-18T09:06:57.146Z,99507.88
2019-03-18T09:09:24.100Z,99501.03
2019-03-18T09:11:51.057Z,99507.41
2019-03-18T09:14:18.056Z,99510.64
2019-03-18T09:16:45.004Z,99537.23
2019-03-18T09:19:12.307Z,99534.01
2019-03-18T09:21:39.576Z,99515.13
2019-03-18T09:24:06.581Z,99528.13
2019-03-18T09:26:33.538Z,99528.43
2019-03-18T09:29:00.520Z,99540.80
2019-03-18T09:31:28.064Z,99534.09
2019-03-18T09:33:56.149Z,99553.09
2019-03-18T09:36:23.059Z,99559.25
2019-03-18T09:38:50.153Z,99560.77
2019-03-18T09:41:17.113Z,99564.77
2019-03-18T09:43:44.379Z,99575.12
2019-03-18T09:46:11.335Z,99572.69
2019-03-18T09:48:38.217Z,99579.64
2019-03-18T09:51:05.486Z,99587.80
2019-03-18T09:53:32.468Z,99584.02
2019-03-18T09:55:59.773Z,99591.77
2019-03-18T09:58:26.636Z,99596.55
2019-03-18T10:00:55.578Z,99597.09
2019-03-18T10:03:22.696Z,99593.80
2019-03-18T10:05:50.024Z,99603.11
2019-03-18T10:08:17.282Z,99615.10
2019-03-18T10:10:44.220Z,99596.92
2019-03-18T10:13:11.398Z,99606.69
2019-03-18T10:15:38.362Z,99605.80
2019-03-18T10:18:05.776Z,99610.05
2019-03-18T10:20:32.713Z,99607.89
2019-03-18T10:22:59.619Z,99612.52
2019-03-18T10:25:26.872Z,99614.92
2019-03-18T10:27:54.257Z,99618.74
2019-03-18T10:30:21.430Z,99626.00
2019-03-18T10:32:48.729Z,99626.11
2019-03-18T10:35:15.642Z,99619.34
2019-03-18T10:37:43.901Z,99621.47
2019-03-18T10:40:11.167Z,99626.92
2019-03-18T10:42:40.467Z,99621.75
2019-03-18T10:45:07.875Z,99624.23
2019-03-18T10:47:34.845Z,99618.20
2019-03-18T10:50:02.105Z,99622.38
2019-03-18T10:52:29.086Z,99624.78
2019-03-18T10:54:56.324Z,99626.75
2019-03-18T10:57:23.570Z,99623.92
2019-03-18T10:59:50.508Z,99632.22
2019-03-18T11:02:17.422Z,99629.39
2019-03-18T11:04:44.346Z,99635.45
2019-03-18T11:07:11.591Z,99641.53
2019-03-18T11:09:38.943Z,99642.45
2019-03-18T11:12:05.867Z,99648.78
2019-03-18T11:14:32.838Z,99653.38
2019-03-18T11:16:59.722Z,99654.27
2019-03-18T11:19:27.005Z,99653.98
2019-03-18T11:21:54.447Z,99651.86
2019-03-18T11:24:22.601Z,99654.41
2019-03-18T11:26:50.551Z,99661.16
2019-03-18T11:29:17.490Z,99663.64
2019-03-18T11:31:44.457Z,99656.78
2019-03-18T11:34:11.662Z,99657.42
2019-03-18T11:36:38.623Z,99662.38
2019-03-18T11:39:05.979Z,99649.56
2019-03-18T11:41:33.206Z,99645.66
2019-03-18T11:44:00.118Z,99651.50
2019-03-18T11:46:27.073Z,99649.48
2019-03-18T11:48:54.017Z,99650.91
2019-03-18T11:51:20.961Z,99654.91
2019-03-18T11:53:48.026Z,99648.26
2019-03-18T11:56:15.265Z,99653.34
2019-03-18T11:58:42.164Z,99647.44
2019-03-18T12:01:09.108Z,99646.16
2019-03-18T12:03:36.421Z,99653.34
2019-03-18T12:06:03.382Z,99645.21
2019-03-18T12:08:30.316Z,99644.22
2019-03-18T12:10:57.598Z,99642.02
2019-03-18T12:13:24.820Z,99643.76
2019-03-18T12:15:52.069Z,99637.85
2019-03-18T12:18:19.053Z,99640.86
2019-03-18T12:20:46.365Z,99640.05
2019-03-18T12:23:13.229Z,99640.54
2019-03-18T12:25:40.093Z,99648.15
2019-03-18T12:28:07.002Z,99668.74
2019-03-18T12:30:35.521Z,99662.91
2019-03-18T12:33:02.761Z,99669.05
2019-03-18T12:35:29.757Z,99671.48
2019-03-18T12:37:57.062Z,99663.91
2019-03-18T12:40:24.405Z,99659.28
2019-03-18T12:42:51.360Z,99660.03
2019-03-18T12:45:18.597Z,99658.33
2019-03-18T12:47:45.537Z,99654.41
2019-03-18T12:50:12.785Z,99660.73
2019-03-18T12:52:40.062Z,99654.34
2019-03-18T12:55:07.019Z,99645.81
2019-03-18T12:57:34.089Z,99653.06
2019-03-18T13:00:01.037Z,99654.34
2019-03-18T13:02:27.945Z,99639.45
2019-03-18T13:04:54.814Z,99644.36
2019-03-18T13:07:22.025Z,99655.22
2019-03-18T13:09:49.007Z,99655.89
2019-03-18T13:12:15.960Z,99652.49
2019-03-18T13:14:43.155Z,99650.30
2019-03-18T13:17:10.025Z,99651.19
2019-03-18T13:19:37.273Z,99653.73
2019-03-18T13:22:04.226Z,99656.28
2019-03-18T13:24:31.213Z,99664.28
2019-03-18T13:26:58.769Z,99693.69
2019-03-18T13:29:26.411Z,99701.10
2019-03-18T13:31:53.637Z,99713.98
2019-03-18T13:34:20.602Z,99717.44
2019-03-18T13:36:47.842Z,99735.95
2019-03-18T13:39:14.781Z,99745.19
2019-03-18T13:41:41.670Z,99742.82
2019-03-18T13:44:08.657Z,99696.81
2019-03-18T13:46:35.655Z,99684.95
2019-03-18T13:49:02.610Z,99684.05
2019-03-18T13:51:29.546Z,99671.99
2019-03-18T13:53:56.532Z,99669.34
2019-03-18T13:56:23.809Z,99668.32
2019-03-18T13:58:50.708Z,99681.69
2019-03-18T14:01:18.113Z,99693.90
2019-03-18T14:03:44.999Z,99700.70
2019-03-18T14:06:11.913Z,99694.86
2019-03-18T14:08:39.134Z,99700.51
2019-03-18T14:11:06.445Z,99709.61
2019-03-18T14:13:33.966Z,99697.39
2019-03-18T14:16:01.314Z,99693.19
2019-03-18T14:18:28.454Z,99697.05
2019-03-18T14:20:55.613Z,99696.66
2019-03-18T14:23:22.641Z,99693.23
2019-03-18T14:25:49.585Z,99695.33
2019-03-18T14:28:16.996Z,99699.53
2019-03-18T14:30:44.078Z,99709.73
2019-03-18T14:33:11.370Z,99717.84
2019-03-18T14:35:38.325Z,99706.11
2019-03-18T14:38:05.323Z,99705.81
2019-03-18T14:40:32.256Z,99707.59
2019-03-18T14:42:59.230Z,99703.83
2019-03-18T14:45:26.118Z,99701.73
2019-03-18T14:47:52.986Z,99716.58
2019-03-18T14:50:19.997Z,99726.42
2019-03-18T14:52:46.952Z,99715.38
2019-03-18T14:55:13.891Z,99716.25
2019-03-18T14:57:41.716Z,99725.56
2019-03-18T15:00:09.663Z,99724.77
2019-03-18T15:02:37.959Z,99731.19
2019-03-18T15:05:04.899Z,99729.56
2019-03-18T15:07:32.200Z,99724.95
2019-03-18T15:09:59.144Z,99736.83
2019-03-18T15:12:27.079Z,99744.44
2019-03-18T15:14:54.390Z,99743.64
2019-03-18T15:17:21.297Z,99739.45
2019-03-18T15:19:48.467Z,99744.11
2019-03-18T15:22:15.405Z,99742.41
2019-03-18T15:24:42.556Z,99742.87
2019-03-18T15:27:10.593Z,99748.34
2019-03-18T15:29:37.548Z,99746.23
2019-03-18T15:32:04.890Z,99753.41
2019-03-18T15:34:31.829Z,99758.88
2019-03-18T15:37:00.964Z,99749.55
2019-03-18T15:39:27.887Z,99755.48
2019-03-18T15:41:55.179Z,99755.45
2019-03-18T15:44:22.433Z,99751.25
2019-03-18T15:46:49.741Z,99737.67
2019-03-18T15:49:16.742Z,99748.20
2019-03-18T15:51:43.696Z,99748.66
2019-03-18T15:54:11.048Z,99750.33
2019-03-18T15:56:38.049Z,99749.06
2019-03-18T15:59:05.054Z,99752.00
2019-03-18T16:01:32.285Z,99748.62
2019-03-18T16:03:59.222Z,99751.20
2019-03-18T16:06:26.592Z,99748.23
2019-03-18T16:08:53.570Z,99747.39
2019-03-18T16:11:21.522Z,99742.71
2019-03-18T16:13:48.845Z,99757.13
2019-03-18T16:16:15.810Z,99764.35
2019-03-18T16:18:42.697Z,99776.16
2019-03-18T16:21:09.904Z,99779.15
2019-03-18T16:23:37.241Z,99780.82
2019-03-18T16:26:04.291Z,99792.66
2019-03-18T16:28:31.245Z,99794.80
2019-03-18T16:30:58.214Z,99796.48
2019-03-18T16:33:25.171Z,99800.27
2019-03-18T16:35:52.573Z,99801.98
2019-03-18T16:38:19.839Z,99801.98
2019-03-18T16:40:47.101Z,99799.44
2019-03-18T16:43:14.006Z,99805.36
2019-03-18T16:45:40.886Z,99806.20
2019-03-18T16:48:07.905Z,99804.89
2019-03-18T16:50:35.177Z,99803.60
2019-03-18T16:53:02.084Z,99807.02
2019-03-18T16:55:29.377Z,99814.61
2019-03-18T16:57:56.621Z,99816.30
2019-03-18T17:00:23.663Z,99824.76
2019-03-18T17:02:50.667Z,99829.00
2019-03-18T17:05:17.664Z,99831.96
2019-03-18T17:07:44.660Z,99834.14
2019-03-18T17:10:11.584Z,99838.41
2019-03-18T17:12:38.923Z,99838.90
2019-03-18T17:15:06.455Z,99844.38
2019-03-18T17:17:33.470Z,99854.52
2019-03-18T17:20:00.414Z,99852.81
2019-03-18T17:22:27.665Z,99857.50
2019-03-18T17:24:54.801Z,99860.50
2019-03-18T17:27:22.313Z,99866.45
2019-03-18T17:29:50.817Z,99871.57
2019-03-18T17:32:18.064Z,99873.67
2019-03-18T17:34:45.305Z,99876.64
2019-03-18T17:37:12.285Z,99877.09
2019-03-18T17:39:39.541Z,99881.81
2019-03-18T17:42:06.637Z,99891.53
2019-03-18T17:44:36.207Z,99895.78
2019-03-18T17:47:02.309Z,99891.55
2019-03-18T17:49:29.660Z,99903.88
2019-03-18T17:51:56.646Z,99902.20
2019-03-18T17:54:24.199Z,99904.72
2019-03-18T17:56:51.338Z,99914.02
2019-03-18T17:59:18.636Z,99922.03
2019-03-18T18:01:45.568Z,99925.02
2019-03-18T18:04:13.035Z,99931.80
2019-03-18T18:06:40.818Z,99933.52
2019-03-18T18:09:07.743Z,99930.13
2019-03-18T18:11:35.343Z,99930.92
2019-03-18T18:14:04.564Z,99931.42
2019-03-18T18:16:31.970Z,99931.04
2019-03-18T18:19:01.176Z,99937.36
2019-03-18T18:21:29.197Z,99937.78
2019-03-18T18:23:56.227Z,99936.55
2019-03-18T18:26:23.498Z,99937.45
2019-03-18T18:28:50.384Z,99938.29
2019-03-18T18:31:18.786Z,99941.23
2019-03-18T18:33:45.785Z,99947.59
2019-03-18T18:36:12.730Z,99952.26
2019-03-18T18:38:39.709Z,99959.07
2019-03-18T18:41:06.660Z,99969.69
2019-03-18T18:43:33.684Z,99968.47
2019-03-18T18:46:00.640Z,99976.48
2019-03-18T18:48:27.657Z,99977.77
2019-03-18T18:50:54.533Z,99984.97
2019-03-18T18:53:26.209Z,99985.39
2019-03-18T18:55:50.037Z,99989.62
2019-03-18T18:58:16.923Z,99996.78
2019-03-18T19:00:44.185Z,100001.02
2019-03-18T19:03:11.469Z,99990.89
2019-03-18T19:05:38.397Z,100001.92
2019-03-18T19:08:06.558Z,100002.37
2019-03-18T19:10:33.446Z,99998.56
2019-03-18T19:13:00.857Z,100012.84
2019-03-18T19:15:28.131Z,100010.16
2019-03-18T19:17:55.354Z,100022.31
2019-03-18T19:20:22.303Z,100021.33
2019-03-18T19:22:49.599Z,100026.72
2019-03-18T19:25:16.926Z,100033.47
2019-03-18T19:27:43.923Z,100039.02
2019-03-18T19:30:10.833Z,100035.32
2019-03-18T19:32:37.880Z,100043.06
2019-03-18T19:35:05.105Z,100044.44
2019-03-18T19:37:32.268Z,100050.82
2019-03-18T19:39:59.625Z,100059.36
2019-03-18T19:42:26.568Z,100056.81
2019-03-18T19:44:53.673Z,100067.80
2019-03-18T19:47:21.143Z,100063.19
2019-03-18T19:49:48.553Z,100064.45
2019-03-18T19:52:17.682Z,100063.19
2019-03-18T19:54:44.748Z,100069.98
2019-03-18T19:57:12.123Z,100074.20
2019-03-18T19:59:39.587Z,100077.63
2019-03-18T20:02:06.783Z,100087.81
2019-03-18T20:04:33.694Z,100081.93
2019-03-18T20:07:00.713Z,100088.30
2019-03-18T20:09:28.068Z,100090.86
2019-03-18T20:11:55.741Z,100106.52
2019-03-18T20:14:22.710Z,100102.70
2019-03-18T20:16:49.651Z,100103.55
2019-03-18T20:19:16.611Z,100104.82
2019-03-18T20:21:43.590Z,100102.26
2019-03-18T20:24:10.561Z,100109.88
2019-03-18T20:26:37.830Z,100109.05
2019-03-18T20:29:05.170Z,100120.50
2019-03-18T20:31:32.317Z,100116.69
2019-03-18T20:33:59.219Z,100126.05
2019-03-18T20:36:26.185Z,100129.43
2019-03-18T20:38:53.602Z,100132.84
2019-03-18T20:41:20.601Z,100129.86
2019-03-18T20:43:47.866Z,100135.37
2019-03-18T20:46:15.143Z,100131.97
2019-03-18T20:48:42.280Z,100135.76
2019-03-18T20:51:09.921Z,100135.34
2019-03-18T20:53:36.947Z,100133.21
2019-03-18T20:56:03.900Z,100142.53
2019-03-18T20:58:30.916Z,100142.95
2019-03-18T21:00:57.897Z,100149.31
2019-03-18T21:03:25.210Z,100150.98
2019-03-18T21:05:52.472Z,100153.97
2019-03-18T21:08:22.777Z,100159.04
2019-03-18T21:10:49.741Z,100156.06
2019-03-18T21:13:17.589Z,100158.19
2019-03-18T21:15:44.501Z,100161.13
2019-03-18T21:18:11.477Z,100167.06
2019-03-18T21:20:38.452Z,100164.92
2019-03-18T21:23:05.653Z,100169.58
2019-03-18T21:25:32.925Z,100168.28
2019-03-18T21:28:00.189Z,100170.80
2019-03-18T21:30:27.430Z,100173.36
2019-03-18T21:32:54.670Z,100175.89
2019-03-18T21:35:21.923Z,100173.80
2019-03-18T21:37:49.201Z,100174.62
2019-03-18T21:40:17.219Z,100176.72
2019-03-18T21:42:44.204Z,100179.27
2019-03-18T21:45:11.080Z,100186.91
2019-03-18T21:47:38.301Z,100191.14
2019-03-18T21:50:05.161Z,100196.66
2019-03-18T21:52:32.435Z,100196.66
2019-03-18T21:54:59.445Z,100201.29
2019-03-18T21:57:26.916Z,100194.94
2019-03-18T21:59:54.166Z,100203.82
2019-03-18T22:02:21.499Z,100208.47
2019-03-18T22:04:48.409Z,100208.88
2019-03-18T22:07:16.302Z,100211.02
2019-03-18T22:09:43.272Z,100210.61
2019-03-18T22:12:10.521Z,100209.75
2019-03-18T22:14:37.425Z,100211.88
2019-03-18T22:17:04.628Z,100213.16
2019-03-18T22:19:31.972Z,100216.50
2019-03-18T22:21:59.125Z,100216.09
2019-03-18T22:24:26.781Z,100215.68
2019-03-18T22:26:53.678Z,100218.21
2019-03-18T22:29:20.653Z,100218.20
2019-03-18T22:31:47.561Z,100226.66
2019-03-18T22:34:14.877Z,100222.44
2019-03-18T22:36:41.809Z,100235.14
2019-03-18T22:39:09.705Z,100231.36
2019-03-18T22:41:36.661Z,100243.63
2019-03-18T22:44:03.989Z,100239.83
2019-03-18T22:46:30.944Z,100248.30
2019-03-18T22:48:57.929Z,100246.59
2019-03-18T22:51:25.237Z,100245.77
2019-03-18T22:53:52.218Z,100247.45
2019-03-18T22:56:19.421Z,100245.77
2019-03-18T22:58:46.684Z,100250.39
2019-03-18T23:01:13.872Z,100249.58
2019-03-18T23:03:40.953Z,100247.03
2019-03-18T23:06:07.920Z,100243.66
2019-03-18T23:08:35.179Z,100247.88
2019-03-18T23:11:02.322Z,100250.41
2019-03-18T23:13:29.221Z,100258.00
2019-03-18T23:15:56.214Z,100259.69
2019-03-18T23:18:23.162Z,100269.42
2019-03-18T23:20:50.077Z,100269.02
2019-03-18T23:23:17.032Z,100269.42
2019-03-18T23:25:45.092Z,100269.02
2019-03-18T23:28:12.285Z,100271.97
2019-03-18T23:30:39.557Z,100270.28
2019-03-18T23:33:07.293Z,100274.08
2019-03-18T23:35:34.481Z,100284.23
2019-03-18T23:38:01.495Z,100281.28
2019-03-18T23:40:28.764Z,100281.72
2019-03-18T23:42:56.279Z,100286.78
2019-03-18T23:45:23.569Z,100283.38
2019-03-18T23:47:50.678Z,100292.69
2019-03-18T23:50:17.555Z,100293.95
2019-03-18T23:52:44.722Z,100291.41
2019-03-18T23:55:19.030Z,100294.80
2019-03-18T23:57:40.550Z,100296.48
